Time;durP1;ratioP1;P1;durP2;ratioP2;P2;SDS_P1;SDS_P2;PMS_P1;PMS_P2;Temp;Humidity;BMP_temperature;BMP_pressure;BME280_temperature;BME280_humidity;BME280_pressure;Samples;Min_cycle;Max_cycle;Signal;HPM_P1;HPM_P2
2023/10/23 00:01:39;;;;;;;30.85;9.25;;;;;;;13.88;100.00;94890.53;4999383;28;20033;-91
2023/10/23 00:04:05;;;;;;;29.15;9.15;;;;;;;13.84;100.00;94886.69;5007224;28;20533;-90
2023/10/23 00:06:31;;;;;;;24.85;8.70;;;;;;;13.96;100.00;94905.19;5007546;28;20025;-91
2023/10/23 00:08:56;;;;;;;31.20;8.95;;;;;;;13.91;100.00;94910.16;4995292;28;20045;-91
2023/10/23 00:11:26;;;;;;;26.83;9.18;;;;;;;13.82;100.00;94890.50;5014074;28;20107;-91
2023/10/23 00:37:56;;;;;;;27.60;8.95;;;;;;;13.43;100.00;94943.88;5043690;23;20340;-89
2023/10/23 00:43:29;;;;;;;28.55;8.90;;;;;;;13.56;100.00;94948.38;5118129;23;20057;-89
2023/10/23 00:46:26;;;;;;;29.07;9.20;;;;;;;13.56;100.00;94950.97;5006871;28;20044;-90
2023/10/23 00:48:52;;;;;;;29.30;9.43;;;;;;;13.55;100.00;94925.97;4977156;28;20080;-90
2023/10/23 00:51:19;;;;;;;23.95;8.50;;;;;;;13.50;100.00;94947.34;5012398;28;20025;-91
2023/10/23 00:56:32;;;;;;;29.88;9.48;;;;;;;13.76;100.00;94936.31;5080787;23;20348;-91
2023/10/23 00:58:58;;;;;;;38.55;9.85;;;;;;;13.50;100.00;94931.72;4987505;28;20052;-93
2023/10/23 01:15:49;;;;;;;29.38;10.48;;;;;;;13.47;100.00;94957.31;5103063;23;20066;-93
2023/10/23 01:18:15;;;;;;;26.30;9.10;;;;;;;13.41;100.00;94938.06;4980064;28;20037;-91
2023/10/23 01:20:40;;;;;;;32.35;9.57;;;;;;;13.27;100.00;94931.13;4990013;28;20032;-92
2023/10/23 01:23:07;;;;;;;31.42;9.95;;;;;;;13.31;100.00;94942.78;4986947;28;20514;-91
2023/10/23 01:25:33;;;;;;;26.48;9.35;;;;;;;13.48;100.00;94954.53;4989717;28;20040;-91
2023/10/23 01:27:58;;;;;;;29.13;9.20;;;;;;;13.53;100.00;94943.56;4985935;28;20033;-92
2023/10/23 01:30:24;;;;;;;27.33;9.98;;;;;;;13.47;100.00;94942.53;4989069;28;20025;-92
2023/10/23 01:32:49;;;;;;;38.20;9.65;;;;;;;13.29;100.00;94918.78;4985732;28;20026;-91
2023/10/23 01:35:15;;;;;;;30.35;9.45;;;;;;;13.47;100.00;94944.31;4989198;28;20036;-91
2023/10/23 01:37:44;;;;;;;31.27;9.50;;;;;;;13.32;100.00;94928.00;4984648;28;20033;-91
2023/10/23 01:42:54;;;;;;;25.83;9.48;;;;;;;13.05;100.00;94943.31;5132252;23;20056;-88
2023/10/23 01:53:31;;;;;;;38.88;10.50;;;;;;;13.13;100.00;94977.03;5909348;23;20373;-90
2023/10/23 01:56:11;;;;;;;26.33;9.45;;;;;;;13.35;100.00;94966.63;5018830;28;20045;-92
2023/10/23 01:58:36;;;;;;;25.45;10.05;;;;;;;13.22;100.00;94937.91;4993170;28;20164;-91
2023/10/23 02:01:02;;;;;;;29.52;10.00;;;;;;;13.20;100.00;94953.69;4986925;28;20497;-91
2023/10/23 02:03:27;;;;;;;33.38;9.88;;;;;;;13.33;100.00;94955.59;4970258;28;20034;-93
2023/10/23 02:05:53;;;;;;;33.78;9.63;;;;;;;13.23;100.00;94966.31;4983247;28;20043;-87
2023/10/23 02:11:02;;;;;;;26.75;8.80;;;;;;;13.36;100.00;94948.22;5048296;23;20062;-91
2023/10/23 02:13:28;;;;;;;32.22;9.70;;;;;;;13.41;100.00;94916.44;4966194;28;20096;-93
2023/10/23 02:15:53;;;;;;;33.97;9.43;;;;;;;13.46;100.00;94937.50;4959271;28;20594;-92
2023/10/23 02:18:19;;;;;;;30.58;8.88;;;;;;;13.54;100.00;94932.97;4968266;28;20121;-92
2023/10/23 02:20:44;;;;;;;34.58;9.30;;;;;;;13.49;100.00;94939.72;4965926;28;20365;-92
2023/10/23 02:23:10;;;;;;;29.92;8.98;;;;;;;13.61;100.00;94938.22;4961161;28;20041;-91
2023/10/23 02:25:35;;;;;;;35.38;10.52;;;;;;;13.45;100.00;94917.69;4957834;28;20910;-93
2023/10/23 02:28:01;;;;;;;20.90;8.52;;;;;;;13.60;100.00;94931.41;4955725;28;20119;-93
2023/10/23 02:30:26;;;;;;;38.13;9.60;;;;;;;13.72;100.00;94945.50;4965685;28;20026;-92
2023/10/23 02:32:51;;;;;;;31.58;9.20;;;;;;;13.74;100.00;94933.91;4947498;28;20644;-92
2023/10/23 02:35:17;;;;;;;27.92;9.90;;;;;;;13.74;100.00;94946.13;4964420;28;20578;-91
2023/10/23 02:37:42;;;;;;;30.02;10.50;;;;;;;13.71;100.00;94933.47;4959400;28;20500;-90
2023/10/23 02:40:08;;;;;;;22.40;9.23;;;;;;;13.87;100.00;94946.19;4969020;28;20034;-91
2023/10/23 02:42:34;;;;;;;27.23;9.00;;;;;;;13.74;100.00;94914.88;4955028;28;20486;-93
2023/10/23 02:44:59;;;;;;;30.33;9.23;;;;;;;13.79;100.00;94941.13;4960946;28;20038;-92
2023/10/23 02:47:24;;;;;;;36.67;10.45;;;;;;;13.82;100.00;94948.56;4949352;28;20083;-92
2023/10/23 02:49:53;;;;;;;29.98;9.20;;;;;;;13.85;100.00;94937.78;4947503;28;20117;-93
2023/10/23 02:52:18;;;;;;;29.15;8.57;;;;;;;13.83;100.00;94951.97;4958182;28;20035;-93
2023/10/23 02:54:44;;;;;;;30.73;8.68;;;;;;;13.80;100.00;94947.97;4942119;28;20046;-92
2023/10/23 02:57:09;;;;;;;31.20;8.88;;;;;;;13.64;100.00;94917.84;4965741;28;20040;-90
2023/10/23 02:59:35;;;;;;;35.05;8.85;;;;;;;13.69;100.00;94936.28;4945667;28;20034;-92
2023/10/23 03:02:00;;;;;;;24.88;9.52;;;;;;;13.65;100.00;94924.63;4967446;28;20030;-92
2023/10/23 03:04:26;;;;;;;25.77;9.13;;;;;;;13.44;100.00;94921.28;4949674;28;20129;-94
2023/10/23 03:06:51;;;;;;;24.95;9.23;;;;;;;13.73;100.00;94947.13;4961647;28;20144;-93
2023/10/23 03:09:16;;;;;;;26.23;9.38;;;;;;;13.72;100.00;94924.66;4962399;28;20064;-92
2023/10/23 03:11:42;;;;;;;34.38;9.98;;;;;;;13.66;100.00;94922.84;4952281;28;20492;-92
2023/10/23 03:14:08;;;;;;;33.13;9.63;;;;;;;13.66;100.00;94930.63;4960052;28;20041;-92
2023/10/23 03:16:34;;;;;;;31.08;9.13;;;;;;;13.55;100.00;94941.59;4949033;28;20034;-92
2023/10/23 03:18:59;;;;;;;26.20;9.88;;;;;;;13.50;100.00;94930.91;4948137;28;20026;-90
2023/10/23 03:21:24;;;;;;;27.00;8.75;;;;;;;13.64;100.00;94941.25;4979011;28;20033;-90
2023/10/23 03:23:50;;;;;;;23.33;8.88;;;;;;;13.51;100.00;94950.75;4956870;28;20040;-92
2023/10/23 03:26:16;;;;;;;31.35;10.13;;;;;;;13.43;100.00;94961.28;4966384;28;20078;-92
2023/10/23 03:28:41;;;;;;;33.45;10.02;;;;;;;13.27;100.00;94943.34;4954163;28;20033;-93
2023/10/23 03:39:45;;;;;;;27.67;9.32;;;;;;;13.15;100.00;94964.66;5079516;23;20076;-93
2023/10/23 03:42:10;;;;;;;32.15;9.80;;;;;;;13.14;100.00;94963.03;4967472;28;20021;-92
2023/10/23 03:44:36;;;;;;;35.80;10.40;;;;;;;13.24;100.00;94962.72;4964917;28;20026;-91
2023/10/23 03:47:02;;;;;;;30.13;9.90;;;;;;;13.11;100.00;94966.00;4968188;28;20036;-92
2023/10/23 03:52:16;;;;;;;32.08;9.98;;;;;;;13.06;100.00;94946.75;5053660;23;20061;-91
2023/10/23 03:54:42;;;;;;;39.33;10.23;;;;;;;13.27;100.00;94969.34;4968649;28;20128;-91
2023/10/23 03:57:07;;;;;;;34.25;10.30;;;;;;;13.29;100.00;94969.97;5003465;28;20029;-91
2023/10/23 03:59:32;;;;;;;31.50;9.93;;;;;;;13.10;100.00;94961.78;4985870;28;20437;-91
2023/10/23 04:09:55;;;;;;;36.17;10.25;;;;;;;12.78;100.00;94996.03;5042987;23;20107;-91
2023/10/23 04:12:22;;;;;;;33.20;10.23;;;;;;;12.73;100.00;94987.97;4973440;28;20046;-91
2023/10/23 04:14:48;;;;;;;28.35;10.07;;;;;;;12.77;100.00;94984.03;4996022;28;20060;-89
2023/10/23 04:19:58;;;;;;;33.08;10.90;;;;;;;12.76;100.00;95005.81;5051911;23;20064;-92
2023/10/23 04:22:23;;;;;;;39.60;10.63;;;;;;;12.89;100.00;95013.75;4966569;28;20042;-93
2023/10/23 04:24:49;;;;;;;30.40;10.02;;;;;;;12.83;100.00;95017.09;4979043;28;20041;-92
2023/10/23 04:44:25;;;;;;;32.40;11.55;;;;;;;12.74;100.00;94992.19;5118555;23;20434;-91
2023/10/23 04:46:50;;;;;;;38.45;12.25;;;;;;;12.86;100.00;95005.50;4986261;28;20482;-92
2023/10/23 04:49:15;;;;;;;28.88;12.23;;;;;;;12.82;100.00;94988.66;4987183;28;20022;-93
2023/10/23 04:51:41;;;;;;;27.33;10.82;;;;;;;12.93;100.00;95004.59;4978275;28;20032;-92
2023/10/23 04:54:06;;;;;;;27.13;11.18;;;;;;;13.04;100.00;95013.69;4985082;28;20455;-92
2023/10/23 04:56:32;;;;;;;33.90;10.93;;;;;;;13.09;100.00;95022.59;4975773;28;20121;-93
2023/10/23 04:58:57;;;;;;;33.90;10.43;;;;;;;13.12;100.00;95014.44;4981546;28;20384;-93
2023/10/23 05:01:24;;;;;;;30.27;10.82;;;;;;;13.15;100.00;95011.47;4983839;28;20541;-91
2023/10/23 05:03:49;;;;;;;37.47;11.55;;;;;;;13.11;100.00;94999.81;4975498;28;20022;-93
2023/10/23 05:06:15;;;;;;;31.38;11.05;;;;;;;13.32;100.00;95003.44;4984260;28;20033;-92
2023/10/23 05:08:40;;;;;;;28.75;10.65;;;;;;;13.40;100.00;95013.69;4975938;28;20252;-91
2023/10/23 05:11:10;;;;;;;23.77;9.40;;;;;;;13.42;100.00;95004.69;4986619;28;20025;-92
2023/10/23 05:18:45;;;;;;;36.08;10.60;;;;;;;13.58;100.00;95011.47;5103280;23;20678;-94
2023/10/23 05:23:54;;;;;;;24.77;10.07;;;;;;;13.69;100.00;95029.97;5097795;23;20111;-92
2023/10/23 05:26:20;;;;;;;33.97;10.23;;;;;;;13.86;100.00;95030.50;4988683;28;20038;-93
2023/10/23 05:28:46;;;;;;;32.35;10.30;;;;;;;14.24;100.00;95010.94;4989347;28;20022;-93
2023/10/23 05:31:12;;;;;;;30.23;9.07;;;;;;;14.50;100.00;95002.50;4990042;28;20025;-93
2023/10/23 05:33:37;;;;;;;31.30;9.45;;;;;;;14.72;100.00;94998.78;4985137;28;20014;-92
2023/10/23 05:36:04;;;;;;;34.22;10.05;;;;;;;15.04;100.00;94984.22;4989524;28;20030;-92
2023/10/23 05:38:31;;;;;;;33.40;10.07;;;;;;;14.91;100.00;94989.41;4974126;28;20030;-92
2023/10/23 05:40:57;;;;;;;26.58;9.02;;;;;;;14.80;100.00;94956.09;5005901;28;20037;-92
2023/10/23 05:43:24;;;;;;;27.13;9.75;;;;;;;14.78;100.00;94958.06;4987558;28;20029;-92
2023/10/23 05:45:49;;;;;;;31.23;9.32;;;;;;;15.01;100.00;94978.59;4989182;28;20531;-92
2023/10/23 05:48:15;;;;;;;29.48;8.43;;;;;;;15.01;100.00;94981.22;4988470;28;20041;-92
2023/10/23 05:50:40;;;;;;;34.22;10.00;;;;;;;14.93;100.00;94976.97;4988115;28;20032;-91
2023/10/23 05:53:05;;;;;;;34.47;10.25;;;;;;;14.90;100.00;94994.84;4989091;28;20087;-92
2023/10/23 05:55:35;;;;;;;34.47;9.68;;;;;;;14.97;100.00;95009.50;4987368;28;20028;-92
2023/10/23 05:58:00;;;;;;;;;;;;;;;14.98;100.00;95000.69;5003083;28;20040;-92
2023/10/23 06:00:26;;;;;;;30.88;9.07;;;;;;;15.09;100.00;95000.09;4978069;28;20310;-92
2023/10/23 06:02:52;;;;;;;33.88;10.23;;;;;;;15.16;100.00;94989.66;5002387;28;20025;-91
2023/10/23 06:05:17;;;;;;;25.05;9.07;;;;;;;15.21;100.00;94989.91;4979393;28;20484;-92
2023/10/23 06:07:43;;;;;;;31.15;9.93;;;;;;;15.10;100.00;94967.78;4978862;28;20127;-92
2023/10/23 06:10:09;;;;;;;35.17;9.48;;;;;;;15.29;100.00;94982.66;5005216;28;20106;-92
2023/10/23 06:12:34;;;;;;;32.83;10.07;;;;;;;15.21;100.00;94974.25;5003916;28;20049;-92
2023/10/23 06:15:00;;;;;;;31.17;9.02;;;;;;;15.28;100.00;94986.28;5023305;28;20030;-92
2023/10/23 06:17:25;;;;;;;33.45;9.20;;;;;;;15.48;100.00;95003.78;4986771;28;20124;-92
2023/10/23 06:19:51;;;;;;;35.97;9.85;;;;;;;15.34;100.00;94991.72;5005248;28;20345;-93
2023/10/23 06:22:16;;;;;;;25.67;9.43;;;;;;;15.42;100.00;94987.09;5003368;28;20058;-93
2023/10/23 06:24:42;;;;;;;30.42;9.13;;;;;;;15.45;100.00;95001.56;4988819;28;20036;-92
2023/10/23 06:27:07;;;;;;;27.52;9.45;;;;;;;15.49;100.00;95000.19;4985211;28;20022;-92
2023/10/23 06:29:32;;;;;;;30.95;9.13;;;;;;;15.51;100.00;94991.16;4992102;28;20399;-92
2023/10/23 06:31:58;;;;;;;24.50;9.40;;;;;;;15.72;100.00;94990.16;4991376;28;20562;-92
2023/10/23 06:34:23;;;;;;;36.08;9.25;;;;;;;15.72;100.00;94967.47;4975009;28;20028;-92
2023/10/23 06:36:49;;;;;;;29.88;10.15;;;;;;;15.81;100.00;94968.06;4961280;28;20199;-91
2023/10/23 06:39:14;;;;;;;34.30;9.68;;;;;;;16.05;100.00;94977.91;5000799;28;20079;-91
2023/10/23 06:41:39;;;;;;;27.38;8.80;;;;;;;16.03;100.00;94971.25;5005246;28;20167;-93
2023/10/23 06:44:05;;;;;;;35.10;10.07;;;;;;;16.07;100.00;94975.88;5019222;28;20139;-92
2023/10/23 06:46:30;;;;;;;33.05;9.65;;;;;;;16.21;100.00;94972.22;4968613;28;20490;-91
2023/10/23 06:48:56;;;;;;;32.55;9.90;;;;;;;16.18;100.00;94967.38;4981376;28;20468;-92
2023/10/23 06:51:21;;;;;;;27.77;10.23;;;;;;;16.13;100.00;94975.06;4986862;28;20029;-91
2023/10/23 06:53:47;;;;;;;28.48;9.60;;;;;;;16.24;100.00;94974.44;5004734;28;20029;-92
2023/10/23 06:56:12;;;;;;;28.17;9.10;;;;;;;16.21;100.00;94959.13;5002890;28;20029;-92
2023/10/23 06:58:38;;;;;;;33.15;8.38;;;;;;;16.53;100.00;94972.34;4987178;28;20272;-91
2023/10/23 07:01:07;;;;;;;31.05;9.05;;;;;;;16.70;100.00;94973.50;4981507;28;20032;-90
2023/10/23 07:03:34;;;;;;;32.92;10.35;;;;;;;16.95;100.00;94984.88;4973325;28;20040;-89
2023/10/23 07:06:03;;;;;;;38.35;10.35;;;;;;;17.33;100.00;94977.00;4997648;28;20026;-89
2023/10/23 07:08:28;;;;;;;32.17;10.02;;;;;;;17.59;100.00;94973.44;4989596;28;20061;-90
2023/10/23 07:10:54;;;;;;;29.15;11.07;;;;;;;17.71;100.00;94969.91;4983660;28;20122;-89
2023/10/23 07:13:19;;;;;;;31.33;10.65;;;;;;;17.51;100.00;94952.69;4993339;28;20030;-90
2023/10/23 07:15:44;;;;;;;24.80;8.88;;;;;;;18.06;100.00;94985.13;5003439;28;20168;-90
2023/10/23 07:18:10;;;;;;;26.65;10.18;;;;;;;18.15;100.00;94966.28;4970808;28;20029;-88
2023/10/23 07:20:36;;;;;;;24.80;8.63;;;;;;;18.50;100.00;94968.34;5008316;28;20040;-89
2023/10/23 07:23:01;;;;;;;33.25;9.77;;;;;;;18.58;100.00;94971.50;4970470;28;20481;-88
2023/10/23 07:25:26;;;;;;;29.98;9.45;;;;;;;18.60;100.00;94966.81;5015416;28;20030;-88
2023/10/23 07:27:52;;;;;;;28.23;8.88;;;;;;;18.60;100.00;94966.81;4992980;28;20091;-89
2023/10/23 07:30:17;;;;;;;27.17;8.20;;;;;;;18.91;100.00;94979.00;4970144;28;20019;-90
2023/10/23 07:32:47;;;;;;;28.42;8.73;;;;;;;19.07;100.00;94975.72;5002742;28;20543;-89
2023/10/23 07:35:13;;;;;;;33.85;8.38;;;;;;;19.36;100.00;94968.88;5000325;28;20112;-89
2023/10/23 07:37:38;;;;;;;28.48;9.32;;;;;;;19.60;100.00;94957.41;4972745;28;20152;-88
2023/10/23 07:40:05;;;;;;;21.88;7.72;;;;;;;19.68;100.00;94962.34;4984421;28;20052;-88
2023/10/23 07:42:31;;;;;;;34.72;8.50;;;;;;;19.87;100.00;94957.81;5019804;28;20037;-88
2023/10/23 07:44:57;;;;;;;26.48;7.70;;;;;;;20.54;100.00;94945.09;5001976;28;20033;-88
2023/10/23 07:47:22;;;;;;;31.20;8.10;;;;;;;20.72;100.00;94961.53;5001359;28;20458;-87
2023/10/23 07:49:47;;;;;;;32.67;9.32;;;;;;;20.37;100.00;94956.31;4986193;28;20793;-88
2023/10/23 07:52:13;;;;;;;23.70;7.85;;;;;;;20.75;100.00;94962.88;4984269;28;20415;-88
2023/10/23 07:54:38;;;;;;;28.45;8.30;;;;;;;21.35;100.00;94958.78;4986219;28;20025;-90
2023/10/23 07:57:04;;;;;;;23.40;8.25;;;;;;;20.99;100.00;94952.06;4984483;28;20032;-88
2023/10/23 07:59:29;;;;;;;31.50;8.77;;;;;;;20.93;100.00;94954.81;4958507;28;20407;-88
2023/10/23 08:01:56;;;;;;;36.72;9.07;;;;;;;20.78;100.00;94957.16;4965990;28;20033;-88
2023/10/23 08:04:22;;;;;;;26.67;9.60;;;;;;;21.39;100.00;94953.84;4967640;28;20430;-88
2023/10/23 08:06:47;;;;;;;31.55;8.23;;;;;;;20.78;100.00;94959.78;5001279;28;20034;-88
2023/10/23 08:09:13;;;;;;;33.75;8.85;;;;;;;20.79;100.00;94958.75;4984653;28;20017;-87
2023/10/23 08:11:38;;;;;;;32.63;10.60;;;;;;;21.03;100.00;94955.00;4985676;28;20044;-89
2023/10/23 08:14:04;;;;;;;37.25;11.02;;;;;;;22.27;92.33;94953.94;5000179;28;20507;-88
2023/10/23 08:16:30;;;;;;;39.45;10.90;;;;;;;22.41;91.40;94962.34;4975209;28;20029;-92
2023/10/23 08:18:57;;;;;;;38.67;10.05;;;;;;;21.69;92.92;94948.28;4973039;28;20389;-88
2023/10/23 08:21:23;;;;;;;31.15;10.15;;;;;;;22.37;89.10;94961.22;5003351;28;20036;-89
2023/10/23 08:23:54;;;;;;;27.95;8.68;;;;;;;21.30;93.33;94944.72;4974244;28;20428;-88
2023/10/23 08:26:19;;;;;;;30.00;8.52;;;;;;;20.89;96.64;94937.88;4981999;28;20419;-88
2023/10/23 08:28:45;;;;;;;35.17;9.43;;;;;;;20.71;96.75;94964.41;5001498;28;20064;-86
2023/10/23 08:31:10;;;;;;;34.90;8.48;;;;;;;20.52;97.25;94959.28;5017582;28;20022;-90
2023/10/23 08:33:36;;;;;;;34.60;8.73;;;;;;;20.79;96.16;94956.13;4971797;28;20145;-87
2023/10/23 08:36:01;;;;;;;36.38;8.68;;;;;;;21.85;90.20;94942.22;5011474;28;20025;-86
2023/10/23 08:38:28;;;;;;;32.38;8.15;;;;;;;23.25;83.91;94946.94;4994161;28;20427;-87
2023/10/23 08:40:54;;;;;;;34.10;8.55;;;;;;;24.33;77.71;94953.72;4999949;28;20447;-85
2023/10/23 08:43:21;;;;;;;29.45;7.68;;;;;;;24.50;75.49;94939.25;5000954;28;20507;-87
2023/10/23 08:45:47;;;;;;;36.60;8.15;;;;;;;24.63;74.91;94951.22;5001090;28;20022;-86
2023/10/23 08:48:13;;;;;;;19.70;7.20;;;;;;;25.48;71.67;94939.31;5000459;28;20021;-86
2023/10/23 08:50:40;;;;;;;28.50;7.55;;;;;;;25.78;68.02;94943.91;5023091;28;20107;-81
2023/10/23 08:53:07;;;;;;;32.43;7.80;;;;;;;24.63;73.09;94940.63;5003674;28;20086;-86
2023/10/23 08:55:33;;;;;;;24.23;7.45;;;;;;;24.37;74.26;94934.41;5005816;28;20022;-89
2023/10/23 08:57:59;;;;;;;27.83;7.68;;;;;;;23.30;79.02;94944.38;4989462;28;20022;-86
2023/10/23 09:00:25;;;;;;;31.63;8.50;;;;;;;24.41;75.36;94942.63;5005222;28;20095;-85
2023/10/23 09:02:51;;;;;;;34.95;7.85;;;;;;;25.51;70.38;94930.88;4967822;28;20018;-86
2023/10/23 09:05:17;;;;;;;29.90;7.72;;;;;;;25.84;69.07;94938.31;4954765;28;20036;-84
2023/10/23 09:07:43;;;;;;;24.52;7.63;;;;;;;25.68;68.01;94936.72;4994695;28;20111;-85
2023/10/23 09:10:09;;;;;;;33.05;7.53;;;;;;;25.87;68.71;94932.47;4974313;28;20483;-84
2023/10/23 09:12:36;;;;;;;22.95;6.65;;;;;;;25.78;67.83;94935.94;5004985;28;20487;-87
2023/10/23 09:15:17;;;;;;;23.95;7.32;;;;;;;25.81;67.67;94944.16;5003568;28;20022;-85
2023/10/23 09:17:43;;;;;;;26.38;8.43;;;;;;;26.30;67.39;94938.31;4988990;28;20025;-84
2023/10/23 09:20:27;;;;;;;37.15;8.48;;;;;;;26.44;65.62;94937.47;4998196;28;20036;-85
2023/10/23 09:22:53;;;;;;;31.65;7.93;;;;;;;26.27;66.30;94931.66;4989152;28;20328;-89
2023/10/23 09:25:20;;;;;;;26.95;7.35;;;;;;;26.16;65.60;94940.72;4965418;28;20069;-84
2023/10/23 09:27:45;;;;;;;26.77;7.63;;;;;;;26.35;66.25;94931.13;4970492;28;20456;-86
2023/10/23 09:30:23;;;;;;;31.02;8.13;;;;;;;25.97;66.31;94915.75;4988414;28;20067;-87
2023/10/23 09:32:53;;;;;;;;;;;;;;;26.03;66.94;94926.09;5004616;28;20098;-85
2023/10/23 09:35:19;;;;;;;31.85;8.82;;;;;;;25.67;67.37;94922.66;5004718;28;20396;-85
2023/10/23 09:37:44;;;;;;;27.95;8.50;;;;;;;25.94;66.89;94910.97;4988685;28;20091;-85
2023/10/23 09:40:14;;;;;;;30.38;8.32;;;;;;;25.76;67.96;94922.13;4986578;28;20079;-90
2023/10/23 09:42:40;;;;;;;25.00;7.72;;;;;;;25.75;67.13;94909.91;4988909;28;20053;-83
2023/10/23 09:45:06;;;;;;;29.60;8.38;;;;;;;25.40;68.74;94900.03;5002478;28;20029;-85
2023/10/23 09:47:32;;;;;;;29.52;9.30;;;;;;;26.02;67.49;94908.56;4973013;28;20038;-84
2023/10/23 09:49:59;;;;;;;34.40;8.63;;;;;;;25.96;67.94;94906.19;4999004;28;20100;-85
2023/10/23 09:52:25;;;;;;;33.00;9.00;;;;;;;25.42;69.54;94919.97;5000974;28;20029;-84
2023/10/23 09:54:58;;;;;;;27.80;7.47;;;;;;;25.68;68.70;94891.59;4983335;28;20113;-85
2023/10/23 09:57:37;;;;;;;31.67;7.90;;;;;;;25.58;67.78;94910.19;4999448;28;20029;-85
2023/10/23 10:00:13;;;;;;;28.88;7.72;;;;;;;26.01;66.98;94898.19;4984265;28;20466;-85
2023/10/23 10:02:40;;;;;;;34.28;8.90;;;;;;;26.14;67.07;94895.00;4972637;28;20491;-84
2023/10/23 10:05:08;;;;;;;27.83;7.78;;;;;;;26.80;64.59;94892.16;5003897;28;20483;-84
2023/10/23 10:07:55;;;;;;;30.70;7.95;;;;;;;26.76;64.65;94891.09;4986264;28;20048;-86
2023/10/23 10:10:21;;;;;;;35.13;7.38;;;;;;;26.54;64.43;94884.28;4998480;28;20111;-83
2023/10/23 10:12:46;;;;;;;29.25;7.15;;;;;;;26.65;65.58;94891.13;4987740;28;20507;-86
2023/10/23 10:15:12;;;;;;;31.08;7.00;;;;;;;26.84;64.16;94882.59;4985248;28;20080;-85
2023/10/23 10:17:39;;;;;;;27.45;7.35;;;;;;;26.86;63.21;94880.44;5004214;28;20033;-85
2023/10/23 10:20:08;;;;;;;33.50;7.30;;;;;;;26.53;63.88;94865.94;4972092;28;20114;-83
2023/10/23 10:22:39;;;;;;;26.63;7.82;;;;;;;26.59;64.10;94867.50;4987482;28;20184;-90
2023/10/23 10:25:06;;;;;;;31.33;7.70;;;;;;;25.96;65.68;94861.03;4998266;28;20615;-87
2023/10/23 10:27:32;;;;;;;35.80;7.85;;;;;;;26.14;65.36;94860.47;4982440;28;20037;-85
2023/10/23 10:30:05;;;;;;;20.92;7.40;;;;;;;26.47;65.90;94870.50;4987097;28;20508;-86
2023/10/23 10:32:32;;;;;;;33.03;8.20;;;;;;;25.93;66.35;94870.34;4958566;28;20045;-84
2023/10/23 10:35:07;;;;;;;29.98;7.88;;;;;;;25.44;68.69;94853.34;4996542;28;20029;-83
2023/10/23 10:37:33;;;;;;;31.02;7.15;;;;;;;25.29;69.63;94861.31;5002388;28;20168;-83
2023/10/23 10:39:58;;;;;;;40.13;8.55;;;;;;;25.21;70.24;94859.97;4986806;28;20029;-86
2023/10/23 10:42:28;;;;;;;40.70;8.60;;;;;;;24.81;71.65;94847.44;5020071;28;20034;-83
2023/10/23 10:44:57;;;;;;;31.13;6.97;;;;;;;25.26;70.88;94867.16;4985041;28;20554;-85
2023/10/23 10:47:37;;;;;;;27.25;7.80;;;;;;;25.43;70.57;94865.81;5003086;28;20036;-84
2023/10/23 10:50:04;;;;;;;31.70;7.85;;;;;;;25.32;70.20;94855.47;5001263;28;20163;-83
2023/10/23 10:52:32;;;;;;;28.17;7.60;;;;;;;25.24;70.85;94845.41;5002746;28;20060;-86
2023/10/23 10:55:11;;;;;;;26.30;7.15;;;;;;;25.48;69.53;94846.47;4984843;28;20531;-84
2023/10/23 10:57:41;;;;;;;34.70;8.25;;;;;;;25.21;70.25;94859.16;5002522;28;20116;-84
2023/10/23 11:00:07;;;;;;;28.25;7.88;;;;;;;24.93;71.40;94847.22;4986654;28;20424;-85
2023/10/23 11:02:32;;;;;;;23.13;7.72;;;;;;;24.70;73.39;94845.00;4970600;28;20026;-84
2023/10/23 11:04:58;;;;;;;34.72;7.90;;;;;;;24.91;72.68;94850.13;4986239;28;20033;-82
2023/10/23 11:07:25;;;;;;;35.53;7.78;;;;;;;24.77;71.85;94850.84;4988453;28;20391;-87
2023/10/23 11:09:51;;;;;;;30.30;8.02;;;;;;;24.30;72.28;94827.13;4966324;28;20060;-82
2023/10/23 11:12:20;;;;;;;22.35;8.10;;;;;;;24.58;73.29;94838.09;4974513;28;20048;-83
2023/10/23 11:14:47;;;;;;;31.42;8.15;;;;;;;24.63;72.25;94835.44;5002076;28;20566;-82
2023/10/23 11:17:13;;;;;;;29.38;8.15;;;;;;;25.04;71.14;94844.31;4985376;28;20036;-82
2023/10/23 11:19:41;;;;;;;30.65;7.75;;;;;;;25.01;68.80;94823.63;5000849;28;20061;-81
2023/10/23 11:22:14;;;;;;;28.33;6.97;;;;;;;25.58;68.19;94841.19;4986392;28;20119;-81
2023/10/23 11:24:40;;;;;;;28.48;7.72;;;;;;;25.51;66.78;94827.38;5000321;28;20411;-84
2023/10/23 11:27:06;;;;;;;28.42;8.57;;;;;;;25.55;67.24;94829.25;5019643;28;20022;-82
2023/10/23 11:29:43;;;;;;;33.92;7.45;;;;;;;25.56;65.38;94830.03;5018465;28;20494;-81
2023/10/23 11:32:10;;;;;;;24.38;6.75;;;;;;;25.51;64.16;94833.50;4986102;28;20643;-82
2023/10/23 11:34:37;;;;;;;35.53;7.78;;;;;;;25.13;64.23;94812.78;4976129;28;20554;-83
2023/10/23 11:37:03;;;;;;;27.40;6.43;;;;;;;24.86;64.74;94823.59;4973962;28;20573;-84
2023/10/23 11:39:29;;;;;;;44.58;7.95;;;;;;;25.18;64.21;94823.38;4968392;28;20035;-86
2023/10/23 11:41:56;;;;;;;35.50;7.30;;;;;;;25.15;63.74;94797.38;4984369;28;20491;-83
2023/10/23 11:44:23;;;;;;;31.45;8.25;;;;;;;25.09;64.32;94804.56;4985480;28;20495;-82
2023/10/23 11:46:48;;;;;;;26.75;6.90;;;;;;;25.07;64.19;94795.28;4983414;28;20128;-86
2023/10/23 11:49:18;;;;;;;29.83;6.47;;;;;;;24.94;63.61;94801.09;4985928;28;20579;-83
2023/10/23 11:51:44;;;;;;;30.52;7.07;;;;;;;24.96;63.09;94794.47;4978363;28;20097;-83
2023/10/23 11:54:10;;;;;;;35.78;7.32;;;;;;;25.32;62.69;94795.28;4988161;28;20033;-81
2023/10/23 11:56:36;;;;;;;33.97;7.80;;;;;;;25.31;61.83;94787.56;5002247;28;20025;-84
2023/10/23 11:59:03;;;;;;;31.15;7.22;;;;;;;25.38;61.97;94780.16;4983380;28;20112;-83
2023/10/23 12:01:30;;;;;;;27.23;6.80;;;;;;;25.13;63.09;94768.50;4990586;28;20032;-86
2023/10/23 12:03:55;;;;;;;31.20;6.72;;;;;;;25.41;63.43;94783.06;4968465;28;20399;-87
2023/10/23 12:06:21;;;;;;;33.78;8.10;;;;;;;25.25;61.36;94770.88;5001750;28;20032;-81
2023/10/23 12:08:46;;;;;;;24.92;6.90;;;;;;;25.12;60.84;94758.16;5017545;28;20057;-86
2023/10/23 12:11:12;;;;;;;21.50;5.70;;;;;;;25.08;61.64;94773.78;4985028;28;20422;-83
2023/10/23 12:13:39;;;;;;;24.50;7.15;;;;;;;25.01;61.68;94753.94;4984916;28;20496;-84
2023/10/23 12:16:04;;;;;;;25.35;6.93;;;;;;;25.23;61.08;94778.31;5000515;28;20083;-84
2023/10/23 12:18:30;;;;;;;26.70;6.70;;;;;;;25.38;60.43;94783.59;5001055;28;20049;-82
2023/10/23 12:20:55;;;;;;;33.90;6.88;;;;;;;25.20;59.76;94765.59;4988097;28;20467;-84
2023/10/23 12:23:21;;;;;;;24.50;6.38;;;;;;;25.20;60.06;94772.75;4999949;28;20050;-84
2023/10/23 12:25:46;;;;;;;25.15;6.30;;;;;;;25.32;59.34;94763.44;4974861;28;20030;-80
2023/10/23 12:28:11;;;;;;;31.23;7.90;;;;;;;25.16;58.31;94775.13;4969527;28;20112;-86
2023/10/23 12:30:37;;;;;;;21.25;6.28;;;;;;;25.18;58.65;94775.66;4988458;28;20031;-81
2023/10/23 12:33:04;;;;;;;27.63;6.60;;;;;;;25.21;59.86;94769.81;5004859;28;20073;-82
2023/10/23 12:35:29;;;;;;;24.55;7.38;;;;;;;25.14;60.12;94761.34;4980320;28;20407;-83
2023/10/23 12:37:55;;;;;;;28.75;6.82;;;;;;;25.21;59.29;94755.75;5003830;28;20022;-85
2023/10/23 12:40:20;;;;;;;29.45;7.60;;;;;;;25.31;58.54;94753.88;4999092;28;20029;-83
2023/10/23 12:42:46;;;;;;;26.08;6.18;;;;;;;25.14;58.27;94764.00;4987326;28;20040;-82
2023/10/23 12:45:11;;;;;;;32.08;6.75;;;;;;;25.09;58.30;94769.28;4997408;28;20034;-83
2023/10/23 12:47:37;;;;;;;22.13;6.35;;;;;;;25.11;57.40;94775.09;4978758;28;20488;-82
2023/10/23 12:50:04;;;;;;;24.50;6.03;;;;;;;25.04;56.43;94774.59;5004680;28;20533;-80
2023/10/23 12:52:29;;;;;;;24.98;6.20;;;;;;;25.06;56.33;94775.13;5004862;28;20040;-83
2023/10/23 12:54:55;;;;;;;25.65;6.10;;;;;;;25.07;56.47;94769.56;4987206;28;20639;-82
2023/10/23 12:57:21;;;;;;;30.98;6.00;;;;;;;24.95;56.65;94758.41;5022973;28;20057;-86
2023/10/23 12:59:46;;;;;;;23.88;5.30;;;;;;;24.88;56.46;94733.25;5003133;28;20023;-86
2023/10/23 13:02:12;;;;;;;25.45;5.85;;;;;;;25.03;56.79;94754.44;4974582;28;20684;-83